Chico, California
Current Conditions -  °F | °C
As of 7:47 AM on Monday 26 Jan 2015 (Local Time) from KCIC Reporting Station
Haze Haze  
Wind Chill: 34°   Ceiling: 18000
Heat Index: 39°   Visibility: 3mi
Dew Point: 39°   Wind: 7mph
Humidity: 100%   Direction: 310°NW
Pressure: 30.09"   Gusts: NA
Location:  39.73°N, 121.84°W
Report Text: KCIC 261547Z 31006KT 3SM BR BKN180 04/04 A3009
Loading
Personal Weather Stations






























Interactive Weather Map New forecast layout! Learn more

10-Day Weather Forecast

Advertisements
Track Severe Weather on mobile